
Director’s Office
*employee works off site
She/her
Website Developer/Designer
| Date Time MST |
Temp °F |
RH % |
DewPt °F |
Wind mph |
Dir ° |
Gust mph |
Dir ° |
Press in Hg |
Solar W/m^2 |
Prec in |
|---|---|---|---|---|---|---|---|---|---|---|
| 2026-05-02 06:40 | 45.9 | 47.1 | 26.9 | 2.0 | 137 | 2.8 | 134 | 25.016 | 262.9 | 0.00 |
| 2026-05-02 06:35 | 45.3 | 49.1 | 27.3 | 2.1 | 161 | 2.9 | 148 | 25.014 | 247.7 | 0.00 |
| 2026-05-02 06:30 | 44.8 | 47.6 | 26.1 | 1.8 | 140 | 2.6 | 128 | 25.015 | 232.4 | 0.00 |
| 2026-05-02 06:25 | 44.2 | 48.4 | 25.9 | 1.8 | 154 | 2.5 | 131 | 25.015 | 217.7 | 0.00 |
| 2026-05-02 06:20 | 43.4 | 50.5 | 26.3 | 1.9 | 136 | 2.6 | 146 | 25.013 | 202.9 | 0.00 |
| 2026-05-02 06:15 | 42.6 | 53.5 | 26.8 | 2.1 | 149 | 2.8 | 169 | 25.011 | 185.4 | 0.00 |
| 2026-05-02 06:10 | 41.8 | 49.2 | 24.1 | 2.9 | 151 | 4.4 | 160 | 25.010 | 171.3 | 0.00 |
| 2026-05-02 06:05 | 41.2 | 52.2 | 25.0 | 3.8 | 152 | 4.4 | 143 | 25.008 | 159.7 | 0.00 |
| 2026-05-02 06:00 | 40.3 | 54.1 | 25.1 | 3.4 | 139 | 4.0 | 144 | 25.009 | 145.1 | 0.00 |
| 2026-05-02 05:55 | 39.8 | 55.7 | 25.3 | 2.3 | 153 | 2.8 | 158 | 25.009 | 132.7 | 0.00 |
| 2026-05-02 05:50 | 38.8 | 57.8 | 25.2 | 2.7 | 137 | 3.1 | 147 | 25.006 | 118.7 | 0.00 |
| 2026-05-02 05:45 | 38.0 | 62.0 | 26.1 | 2.8 | 163 | 3.5 | 149 | 25.005 | 102.7 | 0.00 |
| 2026-05-02 05:40 | 36.8 | 60.6 | 24.5 | 2.7 | 149 | 3.2 | 149 | 25.004 | 104.9 | 0.00 |
| 2026-05-02 05:35 | 36.1 | 62.7 | 24.6 | 1.5 | 176 | 2.2 | 171 | 25.004 | 68.6 | 0.00 |
| 2026-05-02 05:30 | 35.4 | 64.1 | 24.5 | 1.9 | 172 | 2.1 | 155 | 25.005 | 53.2 | 0.00 |
| 2026-05-02 05:25 | 34.7 | 66.3 | 24.6 | 2.0 | 156 | 2.6 | 166 | 25.005 | 39.8 | 0.00 |
| 2026-05-02 05:20 | 34.2 | 68.2 | 24.8 | 2.3 | 165 | 2.8 | 167 | 25.006 | 28.4 | 0.00 |
| 2026-05-02 05:15 | 33.4 | 70.2 | 24.7 | 2.2 | 165 | 2.8 | 170 | 25.008 | 19.4 | 0.00 |
| 2026-05-02 05:10 | 33.6 | 70.3 | 25.0 | 2.6 | 178 | 3.0 | 179 | 25.004 | 12.3 | 0.00 |
| 2026-05-02 05:05 | 33.7 | 71.6 | 25.5 | 2.3 | 176 | 2.8 | 175 | 25.004 | 7.1 | 0.00 |
| 2026-05-02 05:00 | 33.2 | 74.1 | 25.9 | 1.8 | 179 | 2.5 | 178 | 25.006 | 4.7 | 0.00 |
| 2026-05-02 04:55 | 33.5 | 72.0 | 25.4 | 2.4 | 164 | 3.1 | 176 | 25.006 | 3.0 | 0.00 |
| 2026-05-02 04:50 | 33.9 | 71.3 | 25.6 | 2.3 | 182 | 2.9 | 151 | 25.006 | 1.7 | 0.00 |
| 2026-05-02 04:45 | 34.8 | 68.7 | 25.6 | 2.4 | 149 | 2.7 | 152 | 25.004 | 0.9 | 0.00 |
| 2026-05-02 04:40 | 34.6 | 69.8 | 25.7 | 2.1 | 141 | 2.8 | 138 | 24.999 | 0.4 | 0.00 |
| 2026-05-02 04:35 | 34.2 | 71.1 | 25.8 | 1.4 | 175 | 1.8 | 157 | 25.002 | 0.2 | 0.00 |
| 2026-05-02 04:30 | 33.5 | 72.5 | 25.6 | 1.6 | 165 | 2.3 | 168 | 25.002 | 0.1 | 0.00 |
| 2026-05-02 04:25 | 33.3 | 72.2 | 25.4 | 2.3 | 168 | 2.8 | 180 | 25.005 | 0.1 | 0.00 |
| 2026-05-02 04:20 | 33.0 | 73.0 | 25.3 | 2.3 | 180 | 2.8 | 180 | 25.002 | 0.1 | 0.00 |
| 2026-05-02 04:15 | 33.9 | 72.1 | 25.8 | 2.7 | 193 | 3.1 | 176 | 25.004 | 0.1 | 0.00 |
| Date Time MST |
Temp °C |
RH % |
DewPt °C |
Wind m/s |
Dir ° |
Gust m/s |
Dir ° |
Press hPa |
Solar W/m^2 |
Prec mm |
|---|---|---|---|---|---|---|---|---|---|---|
| 2026-05-02 06:40 | 7.7 | 47.1 | -2.9 | 0.9 | 137 | 1.3 | 134 | 847.14 | 262.9 | 0.00 |
| 2026-05-02 06:35 | 7.4 | 49.1 | -2.6 | 0.9 | 161 | 1.3 | 148 | 847.07 | 247.7 | 0.00 |
| 2026-05-02 06:30 | 7.1 | 47.6 | -3.3 | 0.8 | 140 | 1.2 | 128 | 847.10 | 232.4 | 0.00 |
| 2026-05-02 06:25 | 6.8 | 48.4 | -3.4 | 0.8 | 154 | 1.1 | 131 | 847.10 | 217.7 | 0.00 |
| 2026-05-02 06:20 | 6.4 | 50.5 | -3.2 | 0.9 | 136 | 1.2 | 146 | 847.04 | 202.9 | 0.00 |
| 2026-05-02 06:15 | 5.9 | 53.5 | -2.9 | 0.9 | 149 | 1.2 | 169 | 846.98 | 185.4 | 0.00 |
| 2026-05-02 06:10 | 5.4 | 49.2 | -4.4 | 1.3 | 151 | 2.0 | 160 | 846.95 | 171.3 | 0.00 |
| 2026-05-02 06:05 | 5.1 | 52.2 | -3.9 | 1.7 | 152 | 2.0 | 143 | 846.88 | 159.7 | 0.00 |
| 2026-05-02 06:00 | 4.6 | 54.1 | -3.9 | 1.5 | 139 | 1.8 | 144 | 846.90 | 145.1 | 0.00 |
| 2026-05-02 05:55 | 4.3 | 55.7 | -3.7 | 1.0 | 153 | 1.3 | 158 | 846.89 | 132.7 | 0.00 |
| 2026-05-02 05:50 | 3.8 | 57.8 | -3.8 | 1.2 | 137 | 1.4 | 147 | 846.80 | 118.7 | 0.00 |
| 2026-05-02 05:45 | 3.3 | 62.0 | -3.3 | 1.3 | 163 | 1.5 | 149 | 846.77 | 102.7 | 0.00 |
| 2026-05-02 05:40 | 2.7 | 60.6 | -4.2 | 1.2 | 149 | 1.4 | 149 | 846.72 | 104.9 | 0.00 |
| 2026-05-02 05:35 | 2.3 | 62.7 | -4.1 | 0.7 | 176 | 1.0 | 171 | 846.75 | 68.6 | 0.00 |
| 2026-05-02 05:30 | 1.9 | 64.1 | -4.2 | 0.8 | 172 | 1.0 | 155 | 846.76 | 53.2 | 0.00 |
| 2026-05-02 05:25 | 1.5 | 66.3 | -4.1 | 0.9 | 156 | 1.2 | 166 | 846.77 | 39.8 | 0.00 |
| 2026-05-02 05:20 | 1.2 | 68.2 | -4.0 | 1.0 | 165 | 1.3 | 167 | 846.81 | 28.4 | 0.00 |
| 2026-05-02 05:15 | 0.8 | 70.2 | -4.0 | 1.0 | 165 | 1.3 | 170 | 846.85 | 19.4 | 0.00 |
| 2026-05-02 05:10 | 0.9 | 70.3 | -3.9 | 1.2 | 178 | 1.3 | 179 | 846.73 | 12.3 | 0.00 |
| 2026-05-02 05:05 | 0.9 | 71.6 | -3.6 | 1.0 | 176 | 1.3 | 175 | 846.74 | 7.1 | 0.00 |
| 2026-05-02 05:00 | 0.7 | 74.1 | -3.4 | 0.8 | 179 | 1.1 | 178 | 846.81 | 4.7 | 0.00 |
| 2026-05-02 04:55 | 0.8 | 72.0 | -3.7 | 1.1 | 164 | 1.4 | 176 | 846.79 | 3.0 | 0.00 |
| 2026-05-02 04:50 | 1.1 | 71.3 | -3.5 | 1.0 | 182 | 1.3 | 151 | 846.82 | 1.7 | 0.00 |
| 2026-05-02 04:45 | 1.6 | 68.7 | -3.6 | 1.1 | 149 | 1.2 | 152 | 846.72 | 0.9 | 0.00 |
| 2026-05-02 04:40 | 1.4 | 69.8 | -3.5 | 0.9 | 141 | 1.2 | 138 | 846.58 | 0.4 | 0.00 |
| 2026-05-02 04:35 | 1.2 | 71.1 | -3.5 | 0.6 | 175 | 0.8 | 157 | 846.66 | 0.2 | 0.00 |
| 2026-05-02 04:30 | 0.8 | 72.5 | -3.5 | 0.7 | 165 | 1.0 | 168 | 846.68 | 0.1 | 0.00 |
| 2026-05-02 04:25 | 0.7 | 72.2 | -3.7 | 1.0 | 168 | 1.3 | 180 | 846.76 | 0.1 | 0.00 |
| 2026-05-02 04:20 | 0.6 | 73.0 | -3.7 | 1.0 | 180 | 1.2 | 180 | 846.68 | 0.1 | 0.00 |
| 2026-05-02 04:15 | 1.0 | 72.1 | -3.4 | 1.2 | 193 | 1.4 | 176 | 846.72 | 0.1 | 0.00 |

Director’s Office
*employee works off site
She/her
Website Developer/Designer
Barbra.Lashbrook@colostate.edu
Cooperative Institute for Research in the Atmosphere
Colorado State University
1375 Campus Delivery
Fort Collins, CO 80523
970-491-8276
Awards:
– 2025 CIRA Exceptional Service Award
– 2021 CIRA Exceptional Service Award